Time;durP1;ratioP1;P1;durP2;ratioP2;P2;SDS_P1;SDS_P2;PMS_P1;PMS_P2;Temp;Humidity;BMP_temperature;BMP_pressure;BME280_temperature;BME280_humidity;BME280_pressure;Samples;Min_cycle;Max_cycle;Signal;HPM_P1;HPM_P2
2022/05/30 00:02:15;;;;;;;0.70;0.70;;;9.10;65.30;8.40;97733.00;;;;5094293;28;20271;-72
2022/05/30 00:04:43;;;;;;;0.80;0.80;;;9.10;65.40;8.50;97738.00;;;;5094188;28;20273;-73
2022/05/30 00:07:09;;;;;;;0.73;0.73;;;9.00;64.40;8.30;97712.00;;;;5094166;28;20705;-72
2022/05/30 00:09:36;;;;;;;0.60;0.60;;;9.00;63.90;8.30;97736.00;;;;5094087;28;20304;-73
2022/05/30 00:12:04;;;;;;;1.00;1.00;;;8.90;63.90;8.30;97734.00;;;;5094095;28;20293;-73
2022/05/30 00:14:34;;;;;;;0.70;0.70;;;8.90;64.50;8.20;97733.00;;;;5094085;28;20305;-73
2022/05/30 00:17:03;;;;;;;0.90;0.90;;;8.90;64.80;8.20;97726.00;;;;5093822;28;20262;-73
2022/05/30 00:19:29;;;;;;;0.50;0.50;;;8.80;65.10;8.30;97728.00;;;;5093622;28;20194;-74
2022/05/30 00:21:57;;;;;;;1.53;0.77;;;8.90;65.80;8.30;97733.00;;;;5093890;28;20652;-73
2022/05/30 00:24:24;;;;;;;1.20;1.20;;;8.90;65.70;8.10;97726.00;;;;5076186;28;20236;-73
2022/05/30 00:26:50;;;;;;;0.50;0.50;;;8.80;65.60;8.00;97721.00;;;;5093929;28;20214;-73
2022/05/30 00:29:19;;;;;;;2.67;1.40;;;8.80;66.20;8.10;97715.00;;;;5094118;28;20198;-73
2022/05/30 00:31:49;;;;;;;0.70;0.70;;;8.70;66.90;8.10;97721.00;;;;5093774;28;20226;-74
2022/05/30 00:34:18;;;;;;;0.70;0.70;;;8.80;65.40;8.10;97673.00;;;;5075881;28;20784;-74
2022/05/30 00:36:44;;;;;;;1.83;1.27;;;8.70;65.50;8.00;97706.00;;;;5076072;28;20224;-73
2022/05/30 00:39:12;;;;;;;0.70;0.70;;;8.70;65.30;8.00;97708.00;;;;5075862;28;20209;-73
2022/05/30 00:41:41;;;;;;;1.33;1.30;;;8.70;65.30;8.10;97711.00;;;;5094170;28;20214;-73
2022/05/30 00:44:07;;;;;;;0.70;0.70;;;8.60;65.70;7.90;97707.00;;;;5080690;28;20191;-73
2022/05/30 00:46:34;;;;;;;0.70;0.70;;;8.60;65.40;8.00;97713.00;;;;5101793;28;20230;-74
2022/05/30 00:49:07;;;;;;;0.60;0.60;;;8.70;65.80;8.10;97706.00;;;;5097488;28;20209;-74
2022/05/30 00:51:38;;;;;;;0.60;0.60;;;8.70;65.40;8.10;97699.00;;;;5093701;28;20202;-73
2022/05/30 00:54:13;;;;;;;0.67;0.67;;;8.70;65.90;7.90;97709.00;;;;5093770;28;20215;-73
2022/05/30 00:56:45;;;;;;;0.80;0.80;;;8.60;65.60;8.00;97702.00;;;;5093548;28;20594;-72
2022/05/30 00:59:13;;;;;;;0.70;0.70;;;8.50;65.90;7.90;97706.00;;;;5075700;28;20238;-73
2022/05/30 01:01:40;;;;;;;0.63;0.63;;;8.50;65.70;7.70;97697.00;;;;5093528;28;20210;-73
2022/05/30 01:06:57;;;;;;;0.63;0.63;;;8.30;66.60;7.50;97691.00;;;;5093431;28;20215;-73
2022/05/30 01:09:28;;;;;;;0.60;0.60;;;8.30;66.70;7.60;97688.00;;;;5093286;28;20240;-73
2022/05/30 01:11:59;;;;;;;0.80;0.80;;;8.20;67.10;7.60;97682.00;;;;5093431;28;20280;-73
2022/05/30 01:14:34;;;;;;;0.70;0.70;;;8.30;66.90;7.60;97676.00;;;;5092523;28;20612;-73
2022/05/30 01:17:03;;;;;;;1.40;1.30;;;8.20;66.70;7.50;97688.00;;;;5093222;28;20233;-73
2022/05/30 01:19:54;;;;;;;0.50;0.50;;;8.20;66.70;7.60;97674.00;;;;5093299;28;20213;-73
2022/05/30 01:23:14;;;;;;;0.70;0.70;;;8.20;67.10;7.70;97679.00;;;;5093138;28;20214;-73
2022/05/30 01:26:13;;;;;;;0.83;0.83;;;8.30;67.40;7.70;97674.00;;;;5075400;28;20592;-74
2022/05/30 01:28:48;;;;;;;2.27;1.93;;;8.20;67.30;7.60;97672.00;;;;5093278;28;20677;-74
2022/05/30 01:31:16;;;;;;;0.63;0.63;;;8.30;67.00;7.70;97669.00;;;;5095736;28;20637;-73
2022/05/30 01:33:44;;;;;;;1.13;1.13;;;8.30;67.10;7.50;97670.00;;;;5096463;28;20221;-73
2022/05/30 01:36:11;;;;;;;0.83;0.83;;;8.20;66.90;7.50;97672.00;;;;5096536;28;20300;-73
2022/05/30 01:38:37;;;;;;;3.10;0.87;;;8.20;67.40;7.30;97660.00;;;;5096513;28;20202;-72
2022/05/30 01:41:07;;;;;;;0.50;0.50;;;8.10;67.10;7.50;97665.00;;;;5099099;28;20226;-73
2022/05/30 01:43:34;;;;;;;0.80;0.80;;;8.10;68.10;7.50;97662.00;;;;5097920;28;20205;-73
2022/05/30 01:46:06;;;;;;;0.83;0.83;;;8.20;67.40;7.40;97654.00;;;;5096346;28;20571;-73
2022/05/30 01:48:33;;;;;;;0.83;0.83;;;8.20;67.40;7.40;97650.00;;;;5096544;28;20213;-73
2022/05/30 01:51:00;;;;;;;1.37;1.00;;;8.10;67.00;7.00;97656.00;;;;5078509;28;20201;-73
2022/05/30 01:53:29;;;;;;;0.60;0.60;;;7.90;67.20;7.20;97649.00;;;;5095259;28;20287;-73
2022/05/30 01:55:56;;;;;;;0.60;0.60;;;7.90;68.00;7.30;97646.00;;;;5096208;28;20193;-73
2022/05/30 01:58:23;;;;;;;2.20;1.37;;;7.90;67.70;7.40;97650.00;;;;5096385;28;20748;-73
2022/05/30 02:00:50;;;;;;;0.60;0.60;;;8.00;67.60;7.30;97652.00;;;;5096172;28;20202;-73
2022/05/30 02:03:19;;;;;;;0.67;0.67;;;8.00;67.30;7.30;97652.00;;;;5096189;28;20319;-73
2022/05/30 02:05:46;;;;;;;1.13;1.13;;;8.00;67.30;7.30;97637.00;;;;5096103;28;20249;-73
2022/05/30 02:08:16;;;;;;;0.60;0.60;;;8.00;67.50;7.20;97641.00;;;;5078210;28;20275;-73
2022/05/30 02:10:43;;;;;;;0.93;0.87;;;7.90;67.50;7.10;97643.00;;;;5096021;28;20194;-73
2022/05/30 02:13:09;;;;;;;0.70;0.70;;;7.80;67.80;7.10;97645.00;;;;5095889;28;20226;-73
2022/05/30 02:18:20;;;;;;;0.60;0.60;;;7.80;67.50;7.40;97646.00;;;;5097000;28;20278;-73
2022/05/30 02:20:50;;;;;;;1.27;1.17;;;8.00;67.00;7.40;97603.00;;;;5101447;28;20281;-73
2022/05/30 02:23:17;;;;;;;0.93;0.93;;;8.00;67.50;7.50;97646.00;;;;5095989;28;20229;-73
2022/05/30 02:25:44;;;;;;;0.60;0.60;;;8.10;67.40;7.30;97638.00;;;;5095846;28;20251;-73
2022/05/30 02:28:11;;;;;;;0.60;0.60;;;8.00;66.60;7.20;97645.00;;;;5095823;28;20217;-73
2022/05/30 02:30:39;;;;;;;0.80;0.80;;;7.90;66.60;7.00;97636.00;;;;5095653;28;20276;-72
2022/05/30 02:38:41;;;;;;;0.57;0.57;;;7.60;66.00;6.90;97642.00;;;;5095664;28;20198;-73
2022/05/30 02:41:07;;;;;;;1.10;1.00;;;7.50;66.30;6.80;97653.00;;;;5095085;28;20191;-72
2022/05/30 02:43:34;;;;;;;0.57;0.57;;;7.50;67.10;6.80;97642.00;;;;5095695;28;20202;-74
2022/05/30 02:46:00;;;;;;;0.60;0.60;;;7.50;68.20;6.80;97653.00;;;;5095497;28;20424;-73
2022/05/30 02:48:28;;;;;;;0.77;0.77;;;7.50;67.70;6.60;97635.00;;;;5095406;28;20221;-73
2022/05/30 02:50:55;;;;;;;0.50;0.50;;;7.40;66.90;6.60;97630.00;;;;5077793;28;20277;-73
2022/05/30 02:53:22;;;;;;;0.97;0.97;;;7.30;67.90;6.60;97630.00;;;;5095390;28;20227;-73
2022/05/30 02:55:50;;;;;;;0.57;0.57;;;7.30;68.40;6.60;97636.00;;;;5077651;28;20545;-74
2022/05/30 02:58:17;;;;;;;0.90;0.90;;;7.30;68.20;6.80;97643.00;;;;5095481;28;20201;-73
2022/05/30 03:00:43;;;;;;;1.03;1.03;;;7.40;68.50;6.70;97649.00;;;;5095195;28;20236;-73
2022/05/30 03:03:10;;;;;;;1.17;1.17;;;7.40;68.00;6.60;97647.00;;;;5095155;28;20267;-73
2022/05/30 03:05:38;;;;;;;1.13;0.90;;;7.40;68.00;6.60;97632.00;;;;5095253;28;20197;-73
2022/05/30 03:08:07;;;;;;;0.80;0.80;;;7.30;68.50;6.60;97647.00;;;;5095061;28;20708;-72
2022/05/30 03:10:34;;;;;;;0.90;0.90;;;7.30;68.10;6.60;97654.00;;;;5095240;28;20217;-72
2022/05/30 03:13:00;;;;;;;0.53;0.53;;;7.30;68.40;6.60;97645.00;;;;5095046;28;20713;-72
2022/05/30 03:15:27;;;;;;;0.67;0.67;;;7.30;68.00;6.50;97652.00;;;;5095057;28;20201;-70
2022/05/30 03:17:56;;;;;;;0.60;0.60;;;7.20;67.40;6.50;97659.00;;;;5095300;28;20212;-72
2022/05/30 03:20:23;;;;;;;0.70;0.70;;;7.30;67.70;6.40;97672.00;;;;5094958;28;20555;-73
2022/05/30 03:22:50;;;;;;;0.50;0.50;;;7.10;67.50;6.30;97666.00;;;;5095298;28;20218;-73
2022/05/30 03:25:19;;;;;;;0.70;0.70;;;7.10;68.00;6.20;97672.00;;;;5094847;28;20236;-72
2022/05/30 03:27:45;;;;;;;0.80;0.80;;;7.00;67.50;6.20;97668.00;;;;5094860;28;20248;-72
2022/05/30 03:30:14;;;;;;;1.10;1.10;;;6.90;68.70;6.40;97665.00;;;;5094782;28;20649;-72
2022/05/30 03:32:43;;;;;;;1.00;1.00;;;7.00;68.80;6.50;97670.00;;;;5094779;28;20195;-72
2022/05/30 03:35:10;;;;;;;0.70;0.70;;;7.10;68.50;6.40;97673.00;;;;5100249;28;20226;-72
2022/05/30 03:37:41;;;;;;;0.70;0.70;;;7.10;67.70;6.20;97676.00;;;;5103470;28;20271;-73
2022/05/30 03:40:12;;;;;;;0.90;0.90;;;7.00;67.90;6.30;97679.00;;;;5100571;28;20192;-71
2022/05/30 03:42:39;;;;;;;0.60;0.60;;;7.00;68.40;6.30;97674.00;;;;5099832;28;20210;-72
2022/05/30 03:45:09;;;;;;;0.50;0.50;;;7.00;69.20;6.40;97676.00;;;;5095656;28;20217;-72
2022/05/30 03:47:37;;;;;;;0.70;0.70;;;7.00;68.50;6.40;97669.00;;;;5094502;28;20228;-72
2022/05/30 03:50:06;;;;;;;1.47;1.47;;;7.00;68.90;6.40;97676.00;;;;5094323;28;20629;-72
2022/05/30 03:52:33;;;;;;;0.73;0.73;;;7.00;69.10;6.40;97675.00;;;;5093444;28;20230;-72
2022/05/30 03:55:02;;;;;;;1.17;1.17;;;7.00;68.80;6.50;97675.00;;;;5094216;28;20222;-72
2022/05/30 03:57:30;;;;;;;0.83;0.83;;;7.10;69.00;6.50;97676.00;;;;5094390;28;20191;-72
2022/05/30 03:59:57;;;;;;;1.10;1.10;;;7.20;68.90;6.50;97679.00;;;;5094484;28;20189;-72
2022/05/30 04:02:25;;;;;;;1.13;1.10;;;7.20;68.10;6.60;97686.00;;;;5093602;28;20232;-72
2022/05/30 04:04:52;;;;;;;0.90;0.90;;;7.20;67.80;6.60;97682.00;;;;5094286;28;20286;-72
2022/05/30 04:07:18;;;;;;;1.67;1.30;;;7.20;67.80;6.50;97676.00;;;;5094081;28;20230;-72
2022/05/30 04:09:45;;;;;;;0.60;0.60;;;7.20;68.00;6.20;97675.00;;;;5094134;28;20211;-72
2022/05/30 04:12:12;;;;;;;2.10;1.90;;;7.10;68.80;6.20;97681.00;;;;5094168;28;20283;-72
2022/05/30 04:14:39;;;;;;;0.90;0.90;;;7.00;71.00;6.40;97684.00;;;;5094134;28;20262;-72
2022/05/30 04:17:06;;;;;;;1.13;1.10;;;7.10;70.40;6.40;97689.00;;;;5094046;28;20194;-72
2022/05/30 04:19:32;;;;;;;0.60;0.60;;;7.00;69.30;6.30;97691.00;;;;5094025;28;20222;-72
2022/05/30 04:22:00;;;;;;;0.60;0.60;;;7.00;68.60;6.50;97694.00;;;;5094041;28;20206;-72
2022/05/30 04:24:28;;;;;;;0.60;0.60;;;7.10;69.50;6.50;97691.00;;;;5094208;28;20648;-72
2022/05/30 04:26:55;;;;;;;1.20;1.20;;;7.20;68.80;6.60;97697.00;;;;5093874;28;20520;-72
2022/05/30 04:29:22;;;;;;;0.87;0.87;;;7.20;68.50;6.60;97708.00;;;;5093870;28;20224;-72
2022/05/30 04:31:50;;;;;;;0.60;0.60;;;7.20;68.90;6.60;97694.00;;;;5093785;28;20320;-72
2022/05/30 04:34:18;;;;;;;0.80;0.80;;;7.30;69.20;6.60;97693.00;;;;5093996;28;20246;-72
2022/05/30 04:36:44;;;;;;;1.27;1.20;;;7.30;69.50;6.60;97695.00;;;;5093758;28;20212;-72
2022/05/30 04:39:11;;;;;;;7.63;1.30;;;7.20;70.30;6.60;97697.00;;;;5093691;28;20321;-72
2022/05/30 04:41:37;;;;;;;0.80;0.80;;;7.30;70.50;6.60;97700.00;;;;5094082;28;20208;-72
2022/05/30 04:44:04;;;;;;;0.60;0.60;;;7.30;70.50;6.90;97710.00;;;;5093626;28;20300;-72
2022/05/30 04:46:31;;;;;;;1.00;1.00;;;7.40;70.30;6.70;97709.00;;;;5093751;28;20312;-72
2022/05/30 04:48:59;;;;;;;0.60;0.60;;;7.40;69.90;6.70;97711.00;;;;5093709;28;20219;-73
2022/05/30 04:51:27;;;;;;;1.07;1.03;;;7.40;70.30;6.90;97709.00;;;;5093510;28;20233;-72
2022/05/30 04:53:56;;;;;;;1.07;1.07;;;7.50;70.50;7.00;97705.00;;;;5093478;28;20203;-72
2022/05/30 04:56:23;;;;;;;0.97;0.97;;;7.60;70.20;6.90;97674.00;;;;5093444;28;20252;-71
2022/05/30 04:58:50;;;;;;;0.77;0.77;;;7.60;70.60;6.90;97698.00;;;;5093576;28;20675;-72
2022/05/30 05:01:18;;;;;;;2.20;1.63;;;7.60;70.80;7.00;97694.00;;;;5093806;28;20204;-72
2022/05/30 05:03:45;;;;;;;0.73;0.73;;;7.60;71.10;7.00;97701.00;;;;5093866;28;20214;-72
2022/05/30 05:06:18;;;;;;;1.27;1.13;;;7.70;71.40;7.10;97707.00;;;;5097236;28;20701;-72
2022/05/30 05:08:58;;;;;;;0.80;0.80;;;7.70;71.40;7.20;97706.00;;;;5097250;28;20696;-72
2022/05/30 05:11:27;;;;;;;0.70;0.70;;;7.80;71.80;7.30;97708.00;;;;5096892;28;20208;-72
2022/05/30 05:13:55;;;;;;;0.80;0.80;;;7.90;71.20;7.40;97712.00;;;;5096750;28;20268;-72
2022/05/30 05:16:25;;;;;;;0.60;0.60;;;8.00;70.10;7.40;97708.00;;;;5096800;28;20705;-72
2022/05/30 05:18:52;;;;;;;0.60;0.60;;;8.10;69.30;7.40;97715.00;;;;5096937;28;20187;-72
2022/05/30 05:21:24;;;;;;;0.80;0.80;;;8.10;69.60;7.50;97717.00;;;;5096730;28;20253;-71
2022/05/30 05:23:52;;;;;;;0.77;0.77;;;8.20;68.20;7.50;97714.00;;;;5096978;28;20191;-72
2022/05/30 05:26:20;;;;;;;0.70;0.70;;;8.20;68.20;7.50;97718.00;;;;5096805;28;20254;-71
2022/05/30 05:28:48;;;;;;;0.60;0.60;;;8.20;68.10;7.60;97722.00;;;;5096650;28;20298;-72
2022/05/30 05:31:21;;;;;;;0.87;0.87;;;8.20;68.50;7.70;97726.00;;;;5096684;28;20276;-72
2022/05/30 05:33:50;;;;;;;0.90;0.90;;;8.30;68.90;7.70;97728.00;;;;5096429;28;20218;-72
2022/05/30 05:36:20;;;;;;;0.83;0.83;;;8.40;69.50;8.10;97737.00;;;;5096518;28;20203;-72
2022/05/30 05:38:47;;;;;;;0.77;0.77;;;8.60;69.30;8.00;97726.00;;;;5096382;28;20203;-72
2022/05/30 05:41:14;;;;;;;0.90;0.90;;;8.60;68.60;8.10;97734.00;;;;5096743;28;20210;-71
2022/05/30 05:43:40;;;;;;;0.77;0.77;;;8.70;68.70;8.10;97737.00;;;;5096487;28;20201;-71
2022/05/30 05:46:13;;;;;;;0.70;0.70;;;8.80;68.90;8.20;97690.00;;;;5096553;28;20284;-72
2022/05/30 05:48:40;;;;;;;0.93;0.93;;;8.80;69.40;8.30;97743.00;;;;5097036;28;20191;-72
2022/05/30 05:51:07;;;;;;;1.00;0.90;;;8.80;68.50;8.30;97736.00;;;;5103342;28;20264;-72
2022/05/30 05:53:33;;;;;;;0.40;0.40;;;8.90;69.00;8.50;97745.00;;;;5100896;28;20238;-72
2022/05/30 05:56:08;;;;;;;1.60;1.00;;;9.10;69.00;8.60;97744.00;;;;5097115;28;20214;-72
2022/05/30 05:58:35;;;;;;;0.90;0.90;;;9.20;68.80;8.60;97741.00;;;;5096374;28;20693;-71
2022/05/30 06:01:07;;;;;;;0.80;0.80;;;9.20;69.20;8.70;97740.00;;;;5096354;28;20255;-72
2022/05/30 06:03:33;;;;;;;0.87;0.87;;;9.30;69.00;8.90;97731.00;;;;5096061;28;20222;-72
2022/05/30 06:06:00;;;;;;;0.70;0.70;;;9.40;68.90;8.80;97747.00;;;;5096184;28;20241;-72
2022/05/30 06:08:26;;;;;;;0.97;0.97;;;9.40;67.90;8.90;97744.00;;;;5096424;28;20255;-73
2022/05/30 06:11:08;;;;;;;0.80;0.80;;;9.40;67.90;9.00;97754.00;;;;5096480;28;20226;-73
2022/05/30 06:13:36;;;;;;;0.60;0.60;;;9.60;67.40;9.00;97747.00;;;;5078413;28;20222;-73
2022/05/30 06:16:08;;;;;;;0.77;0.77;;;9.60;67.20;9.10;97744.00;;;;5095053;28;20229;-72
2022/05/30 06:18:37;;;;;;;7.53;1.63;;;9.70;67.60;9.10;97750.00;;;;5095933;28;20529;-71
2022/05/30 06:21:07;;;;;;;0.50;0.50;;;9.80;68.30;9.30;97756.00;;;;5095921;28;20218;-73
2022/05/30 06:23:36;;;;;;;1.03;1.03;;;9.80;67.70;9.40;97746.00;;;;5095857;28;20248;-71
2022/05/30 06:26:06;;;;;;;0.77;0.77;;;9.90;67.90;9.30;97750.00;;;;5095972;28;20281;-70
2022/05/30 06:28:36;;;;;;;0.80;0.80;;;10.00;67.60;9.40;97756.00;;;;5095700;28;20272;-71
2022/05/30 06:31:07;;;;;;;0.67;0.67;;;10.00;67.00;9.50;97750.00;;;;5095780;28;20199;-71
2022/05/30 06:33:35;;;;;;;1.27;1.17;;;10.00;66.90;9.60;97751.00;;;;5095594;28;20222;-70
2022/05/30 06:36:04;;;;;;;1.27;1.27;;;10.10;67.70;9.60;97736.00;;;;5095916;28;20198;-71
2022/05/30 06:38:34;;;;;;;0.80;0.80;;;10.20;67.80;9.70;97706.00;;;;5095526;28;20190;-73
2022/05/30 06:41:15;;;;;;;0.60;0.60;;;10.30;68.10;9.70;97749.00;;;;5095555;28;20727;-73
2022/05/30 06:43:43;;;;;;;0.97;0.97;;;10.40;68.00;9.80;97754.00;;;;5095459;28;20198;-74
2022/05/30 06:46:11;;;;;;;1.93;1.53;;;10.40;67.90;9.90;97755.00;;;;5077579;28;20623;-74
2022/05/30 06:48:41;;;;;;;0.70;0.70;;;10.50;68.00;10.00;97761.00;;;;5095440;28;20186;-72
2022/05/30 06:51:10;;;;;;;1.47;1.37;;;10.60;67.90;10.20;97758.00;;;;5095270;28;20297;-73
2022/05/30 06:53:38;;;;;;;0.90;0.90;;;10.70;67.70;10.30;97765.00;;;;5095304;28;20214;-74
2022/05/30 06:56:13;;;;;;;6.33;1.63;;;10.80;67.50;10.40;97773.00;;;;5095303;28;20292;-72
2022/05/30 06:58:40;;;;;;;0.90;0.90;;;10.90;66.60;10.40;97778.00;;;;5077448;28;20210;-73
2022/05/30 07:01:07;;;;;;;0.70;0.70;;;11.00;66.00;10.40;97774.00;;;;5095132;28;20246;-72
2022/05/30 07:03:35;;;;;;;1.73;1.37;;;11.00;65.70;10.60;97778.00;;;;5095188;28;20199;-73
2022/05/30 07:06:07;;;;;;;0.87;0.87;;;11.10;65.70;10.80;97787.00;;;;5077287;28;20234;-70
2022/05/30 07:08:37;;;;;;;0.80;0.80;;;11.20;67.40;10.70;97780.00;;;;5077369;28;20222;-74
2022/05/30 07:11:06;;;;;;;0.90;0.90;;;11.30;71.30;10.80;97783.00;;;;5094858;28;20231;-73
2022/05/30 07:13:34;;;;;;;0.70;0.70;;;11.40;64.30;11.00;97783.00;;;;5094879;28;20303;-73
2022/05/30 07:16:01;;;;;;;0.70;0.70;;;11.50;63.90;11.00;97779.00;;;;5094833;28;20199;-73
2022/05/30 07:18:28;;;;;;;0.90;0.90;;;11.50;64.40;11.00;97782.00;;;;5094859;28;20656;-74
2022/05/30 07:20:57;;;;;;;0.80;0.80;;;11.60;63.60;11.10;97790.00;;;;5077030;28;20214;-72
2022/05/30 07:23:24;;;;;;;1.07;1.07;;;11.70;62.70;11.00;97787.00;;;;5094966;28;20219;-72
2022/05/30 07:25:51;;;;;;;0.90;0.90;;;11.70;62.00;11.10;97782.00;;;;5076981;28;20218;-74
2022/05/30 07:28:19;;;;;;;0.77;0.77;;;11.70;61.80;11.30;97785.00;;;;5094747;28;20662;-74
2022/05/30 07:30:48;;;;;;;0.93;0.93;;;11.80;61.90;11.20;97782.00;;;;5094979;28;20226;-73
2022/05/30 07:33:17;;;;;;;2.57;2.40;;;11.80;61.90;11.50;97785.00;;;;5094578;28;20234;-74
2022/05/30 07:35:45;;;;;;;7.07;4.00;;;12.00;61.60;11.40;97788.00;;;;5094840;28;20194;-73
2022/05/30 07:38:11;;;;;;;7.53;4.73;;;12.00;60.50;11.60;97786.00;;;;5094689;28;20214;-75
2022/05/30 07:40:38;;;;;;;37.47;12.73;;;12.20;81.80;11.70;97786.00;;;;5094775;28;20190;-73
2022/05/30 07:43:05;;;;;;;7.63;5.47;;;12.30;60.80;11.80;97787.00;;;;5076911;28;20202;-73
2022/05/30 07:45:33;;;;;;;20.87;7.57;;;12.30;59.50;11.80;97793.00;;;;5076940;28;20576;-73
2022/05/30 07:48:01;;;;;;;27.63;5.73;;;12.40;59.30;11.90;97788.00;;;;5094712;28;20198;-74
2022/05/30 07:50:27;;;;;;;1.23;1.23;;;12.40;75.60;12.10;97794.00;;;;5076835;28;20305;-74
2022/05/30 07:52:55;;;;;;;3.67;1.40;;;12.60;78.60;12.10;97789.00;;;;5094503;28;20285;-75
2022/05/30 07:55:21;;;;;;;0.60;0.60;;;12.60;75.80;12.10;97787.00;;;;5094207;28;20291;-74
2022/05/30 07:57:50;;;;;;;0.80;0.80;;;12.60;55.30;12.20;97795.00;;;;5076627;28;20202;-75
2022/05/30 08:00:21;;;;;;;0.93;0.93;;;12.70;54.90;12.30;97769.00;;;;5094438;28;20222;-75
2022/05/30 08:02:48;;;;;;;0.63;0.63;;;12.80;53.40;12.40;97790.00;;;;5094277;28;20199;-74
2022/05/30 08:05:20;;;;;;;0.57;0.57;;;12.90;53.00;12.20;97777.00;;;;5094237;28;20277;-75
2022/05/30 08:07:47;;;;;;;0.87;0.87;;;12.90;52.40;12.40;97784.00;;;;5094143;28;20210;-74
2022/05/30 08:10:17;;;;;;;0.80;0.80;;;12.90;52.30;12.50;97782.00;;;;5094298;28;20238;-76
2022/05/30 08:12:43;;;;;;;0.50;0.50;;;13.00;52.60;12.60;97785.00;;;;5094100;28;20274;-75
2022/05/30 08:15:11;;;;;;;1.07;1.07;;;13.10;51.30;12.60;97780.00;;;;5093994;28;20430;-75
2022/05/30 08:17:38;;;;;;;0.87;0.87;;;13.10;52.20;12.60;97780.00;;;;5094187;28;20220;-75
2022/05/30 08:20:09;;;;;;;0.70;0.70;;;13.20;53.00;12.70;97781.00;;;;5094123;28;20704;-75
2022/05/30 08:22:37;;;;;;;0.50;0.50;;;;;12.80;97783.00;;;;5093999;28;20225;-74
2022/05/30 08:25:06;;;;;;;0.80;0.80;;;;;12.90;97789.00;;;;5094175;28;20297;-75
2022/05/30 08:27:33;;;;;;;1.57;1.40;;;;;13.10;97793.00;;;;5093873;28;20301;-76
2022/05/30 08:30:01;;;;;;;0.60;0.60;;;;;13.20;97790.00;;;;5093810;28;20654;-75
2022/05/30 08:32:34;;;;;;;0.60;0.60;;;;;13.30;97790.00;;;;5093798;28;20543;-74
2022/05/30 08:35:03;;;;;;;1.13;1.13;;;;;13.40;97791.00;;;;5093983;28;20662;-76
2022/05/30 08:37:31;;;;;;;0.57;0.57;;;;;13.40;97780.00;;;;5093739;28;20194;-76
2022/05/30 08:42:46;;;;;;;0.50;0.50;;;;;13.60;97787.00;;;;5076013;28;20673;-71
2022/05/30 08:45:16;;;;;;;1.00;1.00;;;;;13.80;97785.00;;;;5094116;28;20237;-75
2022/05/30 08:47:51;;;;;;;0.97;0.97;;;;;13.80;97782.00;;;;5096837;28;20220;-76
2022/05/30 08:50:30;;;;;;;0.87;0.87;;;;;13.90;97788.00;;;;5102383;28;20167;-76
2022/05/30 08:53:22;;;;;;;0.90;0.90;;;;;14.10;97781.00;;;;5098336;28;20273;-74
2022/05/30 08:55:56;;;;;;;0.70;0.70;;;;;14.20;97774.00;;;;5093138;28;20229;-77
2022/05/30 08:58:41;;;;;;;1.03;1.03;;;;;14.30;97777.00;;;;5093684;28;20186;-73
2022/05/30 09:01:13;;;;;;;0.57;0.57;;;;;14.30;97771.00;;;;5093773;28;20222;-76
2022/05/30 09:04:06;;;;;;;0.60;0.60;;;;;14.40;97779.00;;;;5075760;28;20203;-76
2022/05/30 09:06:36;;;;;;;0.60;0.60;;;;;14.40;97783.00;;;;5093525;28;20214;-76
2022/05/30 09:09:20;;;;;;;1.23;1.13;;;;;14.50;97779.00;;;;5093598;28;20203;-74
2022/05/30 09:11:51;;;;;;;0.60;0.60;;;;;14.70;97780.00;;;;5093541;28;20225;-75
2022/05/30 09:14:28;;;;;;;0.70;0.70;;;;;14.80;97771.00;;;;5093569;28;20242;-74
2022/05/30 09:16:59;;;;;;;1.03;1.03;;;;;14.70;97773.00;;;;5093499;28;20228;-75
2022/05/30 09:19:27;;;;;;;0.50;0.50;;;;;14.90;97776.00;;;;5093455;28;20273;-75
2022/05/30 09:22:01;;;;;;;0.50;0.50;;;;;15.10;97777.00;;;;5093349;28;20222;-73
2022/05/30 09:24:32;;;;;;;0.90;0.90;;;;;15.20;97782.00;;;;5093412;28;20194;-74
2022/05/30 09:27:02;;;;;;;0.63;0.63;;;;;15.30;97778.00;;;;5075541;28;20665;-74
2022/05/30 09:29:36;;;;;;;1.17;1.17;;;;;15.70;97778.00;;;;5093191;28;20305;-76
2022/05/30 09:32:12;;;;;;;0.63;0.63;;;;;15.80;97781.00;;;;5093136;28;20510;-74
2022/05/30 09:34:45;;;;;;;0.60;0.60;;;;;15.80;97779.00;;;;5093309;28;20214;-73
2022/05/30 09:37:26;;;;;;;0.90;0.90;;;;;15.70;97783.00;;;;5093229;28;20839;-74
2022/05/30 09:39:55;;;;;;;0.70;0.70;;;;;16.00;97773.00;;;;5093156;28;20615;-77
2022/05/30 09:42:29;;;;;;;0.90;0.90;;;;;16.30;97784.00;;;;5092862;28;20600;-77
2022/05/30 09:45:06;;;;;;;1.13;0.70;;;;;16.70;97779.00;;;;5075870;28;20612;-75
2022/05/30 09:47:34;;;;;;;0.50;0.50;;;;;16.90;97784.00;;;;5092809;28;20332;-74
2022/05/30 09:50:13;;;;;;;0.63;0.63;;;;;16.90;97787.00;;;;5093141;28;20186;-74
2022/05/30 09:52:41;;;;;;;0.70;0.70;;;;;16.90;97778.00;;;;5096274;28;20289;-76
2022/05/30 09:55:26;;;;;;;0.77;0.77;;;;;17.20;97779.00;;;;5078635;28;20279;-74
2022/05/30 09:57:55;;;;;;;0.53;0.53;;;;;17.40;97780.00;;;;5096719;28;20182;-74
2022/05/30 10:00:36;;;;;;;0.73;0.73;;;;;17.70;97785.00;;;;5096240;28;20190;-74
2022/05/30 10:03:07;;;;;;;0.60;0.60;;;;;17.60;97776.00;;;;5096105;28;20233;-74
2022/05/30 10:05:36;;;;;;;0.60;0.60;;;;;17.20;97781.00;;;;5096098;28;20205;-74
2022/05/30 10:08:05;;;;;;;16.83;1.07;;;;;17.20;97766.00;;;;5095993;28;20236;-75
2022/05/30 10:10:39;;;;;;;0.70;0.70;;;;;17.40;97772.00;;;;5096128;28;20283;-74
2022/05/30 10:13:07;;;;;;;0.50;0.50;;;;;17.70;97780.00;;;;5096073;28;20634;-73
2022/05/30 10:15:38;;;;;;;0.63;0.63;;;;;17.50;97775.00;;;;5095824;28;20222;-73
2022/05/30 10:18:24;;;;;;;0.50;0.50;;;;;17.90;97782.00;;;;5095846;28;20634;-74
2022/05/30 10:21:01;;;;;;;0.70;0.70;;;;;18.30;97779.00;;;;5095734;28;20206;-73
2022/05/30 10:29:31;;;;;;;0.50;0.50;;;;;19.00;97777.00;;;;5095811;28;20214;-72
2022/05/30 10:32:11;;;;;;;0.83;0.83;;;;;19.30;97786.00;;;;5095771;28;20205;-70
2022/05/30 10:35:02;;;;;;;0.70;0.70;;;;;19.30;97784.00;;;;5095506;28;20309;-72
2022/05/30 10:37:44;;;;;;;0.50;0.50;;;;;19.20;97776.00;;;;5095743;28;20226;-71
2022/05/30 10:40:33;;;;;;;0.80;0.80;;;;;19.50;97790.00;;;;5095494;28;20218;-70
2022/05/30 10:43:08;;;;;;;0.50;0.50;;;;;19.40;97792.00;;;;5095512;28;20206;-72
2022/05/30 10:45:45;;;;;;;0.50;0.50;;;;;19.50;97792.00;;;;5095487;28;20293;-73
2022/05/30 10:48:24;;;;;;;0.50;0.50;;;;;19.70;97790.00;;;;5077615;28;20253;-73
2022/05/30 10:50:56;;;;;;;0.50;0.50;;;;;20.10;97783.00;;;;5077714;28;20571;-74
2022/05/30 10:53:32;;;;;;;0.60;0.60;;;;;20.40;97787.00;;;;5077658;28;20254;-74
2022/05/30 10:56:14;;;;;;;0.40;0.40;;;;;20.50;97786.00;;;;5077565;28;20630;-75
2022/05/30 10:58:49;;;;;;;0.50;0.50;;;;;20.20;97798.00;;;;5095402;28;20202;-74
2022/05/30 11:01:28;;;;;;;0.40;0.40;;;;;19.90;97798.00;;;;5095550;28;20228;-73
2022/05/30 11:04:16;;;;;;;0.50;0.50;;;;;19.60;97807.00;;;;5095275;28;20210;-73
2022/05/30 11:06:48;;;;;;;0.60;0.60;;;;;19.50;97805.00;;;;5095207;28;20219;-76
2022/05/30 11:09:21;;;;;;;0.50;0.50;;;;;19.60;97798.00;;;;5095078;28;20285;-75
2022/05/30 11:11:53;;;;;;;0.50;0.50;;;;;19.90;97790.00;;;;5095138;28;20218;-75
2022/05/30 11:14:30;;;;;;;0.60;0.60;;;;;20.20;97790.00;;;;5095006;28;20217;-75
2022/05/30 11:17:06;;;;;;;0.50;0.50;;;;;20.30;97791.00;;;;5095145;28;20201;-74
2022/05/30 11:19:45;;;;;;;0.67;0.67;;;;;20.40;97800.00;;;;5094858;28;20256;-73
2022/05/30 11:22:17;;;;;;;0.77;0.77;;;;;20.90;97800.00;;;;5077257;28;20206;-73
2022/05/30 11:24:51;;;;;;;0.70;0.70;;;21.10;19.80;20.70;97796.00;;;;5094906;28;20202;-74
2022/05/30 11:27:35;;;;;;;5.93;1.63;;;20.90;20.10;21.20;97795.00;;;;5094912;28;20285;-73
2022/05/30 11:30:41;;;;;;;0.50;0.50;;;21.40;21.50;21.40;97790.00;;;;5094913;28;20167;-73
2022/05/30 11:33:44;;;;;;;2.33;0.83;;;21.60;19.60;21.20;97798.00;;;;5092787;28;20266;-72
2022/05/30 11:36:46;;;;;;;0.40;0.40;;;21.50;18.60;21.30;97795.00;;;;5094738;28;20190;-71
2022/05/30 11:39:47;;;;;;;0.40;0.40;;;21.70;19.20;21.50;97799.00;;;;5076891;28;20253;-75
2022/05/30 11:42:30;;;;;;;0.80;0.80;;;21.80;19.20;21.90;97808.00;;;;5094688;28;20202;-73
2022/05/30 11:45:00;;;;;;;0.50;0.50;;;22.10;19.50;22.20;97802.00;;;;5094539;28;20866;-73
2022/05/30 11:47:43;;;;;;;0.50;0.50;;;22.50;18.20;22.20;97804.00;;;;5094600;28;20210;-72
2022/05/30 11:50:26;;;;;;;0.50;0.50;;;22.50;17.90;21.90;97805.00;;;;5094860;28;20199;-73
2022/05/30 11:53:37;;;;;;;0.73;0.73;;;22.40;18.50;22.40;97804.00;;;;5077050;28;20799;-73
2022/05/30 11:56:14;;;;;;;0.50;0.50;;;22.60;19.30;21.70;97813.00;;;;5094025;28;20229;-73
2022/05/30 11:59:27;;;;;;;0.50;0.50;;;22.20;19.00;21.40;97816.00;;;;5094440;28;20731;-72
2022/05/30 12:02:00;;;;;;;0.52;0.52;;;21.90;20.30;21.50;97823.00;;;;5062629;28;20587;-73